Hovedside
METAR-TAF:

METAR-TAF

Lufthavner :

Ängelholm-Helsingborg lufthavn

Helsingborg, Sverige

breddegrad: 56-17-46N, lengdegrad: 012-50-50E, høyde over havet: 21 m

Gjeldene værobservasjon

Denne rapporten ble laget for 19 minutter siden, klokken 04:50 UTC
Vind 10 kt fra Øst
Temperatur 10°C
Luftfuktighet 76%
Trykk 1009 hPa
Sikt 10 km eller mer
ingen skyer under 1500 m og ingen bygeskyer

METAR: ESTA 250450Z 10010KT CAVOK 10/06 Q1009

Tid: 07:09 (05:09 UTC)

Varsel

Denne rapporten ble laget for 40 minutter siden, klokken 04:29 UTC
Varsel gyldig fra 25. klokken 05 UTC til 25. klokken 12 UTC
Vind 10 kt fra Øst
Sikt 10 km eller mer
Spredte skyer i en høyde av 3000 ft

TAF: ESTA 250429Z 2505/2512 10010KT 9999 SCT030

Værobservasjoner og værvarsel for over 4000 flyplasser (METAR- og TAF-rapporter).

Tilgjengelige stasjoner er representert av de røde og gule prikkene på kartet.

Hold musepekeren over prikken for å se navnet på stasjonen.

Klikk så for å se værobservasjoner og -varsler.

For å forandre kartet kan du klikke på den grønne knappen med svart kryss for å zoome inn, på den grønne knappen med strek for å zoome ut, eller på de grønne pilene for å se tilstøtende kart.


METAR-TAF: